NCAR-RAP Real-Time Weather Data

Output produced by METARs form (24 January 2018  01:53 UTC)
found at http://weather.rap.ucar.edu/surface/
 
Conditions at: KALB observed 24 January 2018  00:51 UTC
Temperature: 3.9°C (39°F)
Dewpoint: 0.6°C (33°F) [RH = 79%]
Pressure (altimeter): 29.62 inches Hg (1003.1 mb)
[Sea-level pressure: 1003.2 mb]
Winds: from the WNW (300 degrees) at 8 MPH (7 knots; 3.6 m/s)
Visibility: 10 or more miles (16+ km)
Ceiling: 6000 feet AGL
Clouds: broken clouds at 6000 feet AGL
Present Weather: no significant weather observed at this time
KALB 240051Z 30007KT 10SM BKN060 04/01 A2962 RMK AO2 SLP032 T00390006

Conditions at: KALB observed 23 January 2018  23:51 UTC
Temperature: 5.0°C (41°F)
Dewpoint: 1.7°C (35°F) [RH = 79%]
Pressure (altimeter): 29.61 inches Hg (1002.8 mb)
[Sea-level pressure: 1002.8 mb]
Winds: from the WNW (300 degrees) at 6 MPH (5 knots; 2.6 m/s)
Visibility: 10 or more miles (16+ km)
Ceiling: 4900 feet AGL
Clouds: scattered clouds at 3900 feet AGL
broken clouds at 4900 feet AGL
Present Weather: no significant weather observed at this time
KALB 232351Z 30005KT 10SM SCT039 BKN049 05/02 A2961 RMK AO2 RAE28 SLP028 P0001 60005 T00500017 10089 20044 53031

Conditions at: KALB observed 23 January 2018  22:51 UTC
Temperature: 6.1°C (43°F)
Dewpoint: 4.4°C (40°F) [RH = 89%]
Pressure (altimeter): 29.58 inches Hg (1001.8 mb)
[Sea-level pressure: 1001.8 mb]
Winds: from the NW (320 degrees) at 20 MPH (17 knots; 8.8 m/s)
gusting to 26 MPH (23 knots; 12.0 m/s)
Visibility: 8 miles (13 km)
Ceiling: 3000 feet AGL
Clouds: few clouds at 1700 feet AGL
broken clouds at 3000 feet AGL
overcast cloud deck at 6000 feet AGL
Present Weather: -RA  (light rain)
KALB 232251Z COR 32017G23KT 8SM -RA FEW017 BKN030 OVC060 06/04 A2958 RMK AO2 WSHFT 2231 RAE2153B27 SLP018 FROPA P0001 T00610044

Conditions at: KALB observed 23 January 2018  22:40 UTC
Temperature: 6.7°C (44°F)
Dewpoint: 5.0°C (41°F) [RH = 89%]
Pressure (altimeter): 29.57 inches Hg (1001.4 mb)
Winds: from the WNW (290 degrees) at 20 MPH (17 knots; 8.8 m/s)
gusting to 23 MPH (20 knots; 10.4 m/s)
Visibility: 8 miles (13 km)
Ceiling: 4200 feet AGL
Clouds: scattered clouds at 200 feet AGL
broken clouds at 4200 feet AGL
overcast cloud deck at 8500 feet AGL
Present Weather: -RA  (light rain)
KALB 232240Z 29017G20KT 8SM -RA SCT002 BKN042 OVC085 07/05 A2957 RMK AO2 RAE2153B27 P0000 T00670050

Conditions at: KALB observed 23 January 2018  22:22 UTC
Temperature: 6.7°C (44°F)
Dewpoint: 5.6°C (42°F) [RH = 93%]
Pressure (altimeter): 29.53 inches Hg (1000.1 mb)
Winds: from the SW (220 degrees) at 7 MPH (6 knots; 3.1 m/s)
Visibility: 4 miles (6 km)
Ceiling: 200 feet AGL
Clouds: broken clouds at 200 feet AGL
broken clouds at 7000 feet AGL
overcast cloud deck at 8500 feet AGL
Present Weather: BR  (mist)
KALB 232222Z 22006KT 4SM BR BKN002 BKN070 OVC085 07/06 A2953 RMK AO2 RAE2153 P0000 T00670056

Conditions at: KALB observed 23 January 2018  21:51 UTC
Temperature: 6.7°C (44°F)
Dewpoint: 5.6°C (42°F) [RH = 93%]
Pressure (altimeter): 29.51 inches Hg (999.4 mb)
[Sea-level pressure: 999.6 mb]
Winds: from the S (190 degrees) at 8 MPH (7 knots; 3.6 m/s)
Visibility: 0.25 miles (0.40 km)
Ceiling: 200 feet AGL
Clouds: broken clouds at 200 feet AGL
overcast cloud deck at 6000 feet AGL
Present Weather: -RA FG  (light rain, fog)
KALB 232151Z 19007KT 1/4SM R01/2800V3500FT -RA FG BKN002 OVC060 07/06 A2951 RMK AO2 SFC VIS 1/2 RAB05 SLP996 BINOVC PCPN VRY LGT P0001 T00670056

Conditions at: KALB observed 23 January 2018  21:38 UTC
Temperature: 7.2°C (45°F)
Dewpoint: 6.1°C (43°F) [RH = 93%]
Pressure (altimeter): 29.49 inches Hg (998.7 mb)
Winds: from the SE (140 degrees) at 7 MPH (6 knots; 3.1 m/s)
Visibility: 0.25 miles (0.40 km)
Ceiling: 200 feet AGL
Clouds: broken clouds at 200 feet AGL
overcast cloud deck at 6000 feet AGL
Present Weather: -RA FG  (light rain, fog)
KALB 232138Z 14006KT 1/4SM R01/1600V2400FT -RA FG BKN002 OVC060 07/06 A2949 RMK AO2 RAB05 PRESFR BINOVC PCPN VRY LGT P0001 T00720061

Conditions at: KALB observed 23 January 2018  20:51 UTC
Temperature: 7.8°C (46°F)
Dewpoint: 6.7°C (44°F) [RH = 93%]
Pressure (altimeter): 29.52 inches Hg (999.7 mb)
[Sea-level pressure: 999.7 mb]
Winds: calm
Visibility: 0.25 miles (0.40 km)
Ceiling: indefinite ceiling with vertical visibility of 200 feet AGL
Clouds: obscured sky
Present Weather: FG  (fog)
KALB 232051Z 00000KT 1/4SM R01/1000V1200FT FG VV002 08/07 A2952 RMK AO2 SLP997 60002 T00780067 56010

Conditions at: KALB observed 23 January 2018  20:34 UTC
Temperature: 8.3°C (47°F)
Dewpoint: 6.7°C (44°F) [RH = 90%]
Pressure (altimeter): 29.50 inches Hg (999.1 mb)
Winds: from the N (360 degrees) at 3 MPH (3 knots; 1.6 m/s)
Visibility: 0.25 miles (0.40 km)
Ceiling: 200 feet AGL
Clouds: overcast cloud deck at 200 feet AGL
Present Weather: BCFG BR  (patches of fog, mist)
KALB 232034Z 36003KT 1/4SM R01/P6000FT BCFG BR OVC002 08/07 A2950 RMK AO2 SFC VIS 3/4 BCFG ALQDS T00830067

Conditions at: KALB observed 23 January 2018  20:11 UTC
Temperature: 8.3°C (47°F)
Dewpoint: 7.2°C (45°F) [RH = 93%]
Pressure (altimeter): 29.52 inches Hg (999.7 mb)
Winds: calm
Visibility: 0.25 miles (0.40 km)
Ceiling: 300 feet AGL
Clouds: broken clouds at 300 feet AGL
overcast cloud deck at 9000 feet AGL
Present Weather: BCFG BR  (patches of fog, mist)
KALB 232011Z 00000KT 1/4SM R01/P6000FT BCFG BR BKN003 OVC090 08/07 A2952 RMK AO2 SFC VIS 1 3/4 VIS SW-NW 1/2 BCFG ALQDS T00830072

Conditions at: KALB observed 23 January 2018  20:03 UTC
Temperature: 8.3°C (47°F)
Dewpoint: 6.7°C (44°F) [RH = 90%]
Pressure (altimeter): 29.52 inches Hg (999.7 mb)
Winds: from the WSW (250 degrees) at 3 MPH (3 knots; 1.6 m/s)
Visibility: 0.50 miles (0.80 km)
Ceiling: 300 feet AGL
Clouds: broken clouds at 300 feet AGL
overcast cloud deck at 9000 feet AGL
Present Weather: BCFG BR  (patches of fog, mist)
KALB 232003Z 25003KT 1/2SM R01/P6000FT BCFG BR BKN003 OVC090 08/07 A2952 RMK AO2 SFC VIS 1 3/4 VIS SW-NW 1/2 BCFG ALQDS T00830067

Conditions at: KALB observed 23 January 2018  19:51 UTC
Temperature: 8.9°C (48°F)
Dewpoint: 7.2°C (45°F) [RH = 89%]
Pressure (altimeter): 29.52 inches Hg (999.7 mb)
[Sea-level pressure: 999.6 mb]
Winds: from the W (260 degrees) at 3 MPH (3 knots; 1.6 m/s)
Visibility: 1.00 miles (1.61 km)
Ceiling: 10000 feet AGL
Clouds: scattered clouds at 300 feet AGL
scattered clouds at 7000 feet AGL
broken clouds at 10000 feet AGL
Present Weather: BCFG BR  (patches of fog, mist)
KALB 231951Z 26003KT 1SM R01/P6000FT BCFG BR SCT003 SCT070 BKN100 09/07 A2952 RMK AO2 SFC VIS 3 RAE1858 SLP996 VIS SW-NW 1 BCFG SW-NW-NE P0001 T00890072

Conditions at: KALB observed 23 January 2018  19:42 UTC
Temperature: 7.8°C (46°F)
Dewpoint: 6.1°C (43°F) [RH = 89%]
Pressure (altimeter): 29.52 inches Hg (999.7 mb)
Winds: from the W (260 degrees) at 6 MPH (5 knots; 2.6 m/s)
Visibility: 2.50 miles (4.02 km)
Ceiling: 10000 feet AGL
Clouds: scattered clouds at 300 feet AGL
scattered clouds at 7000 feet AGL
broken clouds at 10000 feet AGL
Present Weather: BCFG BR  (patches of fog, mist)
KALB 231942Z COR 26005KT 2 1/2SM BCFG BR SCT003 SCT070 BKN100 08/06 A2952 RMK AO2 SFC VIS 4 RAE1858 VIS SW-NW 1 1/2 BCFG ALQDS P0001 T00780061

Conditions at: KALB observed 23 January 2018  19:29 UTC
Temperature: 7.8°C (46°F)
Dewpoint: 6.1°C (43°F) [RH = 89%]
Pressure (altimeter): 29.52 inches Hg (999.7 mb)
Winds: from the WSW (250 degrees) at 3 MPH (3 knots; 1.6 m/s)
Visibility: 6 miles (10 km)
Ceiling: 10000 feet AGL
Clouds: scattered clouds at 300 feet AGL
scattered clouds at 7000 feet AGL
broken clouds at 10000 feet AGL
Present Weather: BCFG BR  (patches of fog, mist)
KALB 231929Z 25003KT 6SM BCFG BR SCT003 SCT070 BKN100 08/06 A2952 RMK AO2 RAE1858 VIS SW-NW 2 BCFG SW-NW-NE P0001 T00780061

Conditions at: KALB observed 23 January 2018  18:51 UTC
Temperature: 6.7°C (44°F)
Dewpoint: 5.6°C (42°F) [RH = 93%]
Pressure (altimeter): 29.51 inches Hg (999.4 mb)
[Sea-level pressure: 999.5 mb]
Winds: calm
Visibility: 2.00 miles (3.22 km)
Ceiling: 3300 feet AGL
Clouds: scattered clouds at 300 feet AGL
broken clouds at 3300 feet AGL
overcast cloud deck at 7000 feet AGL
Present Weather: -RA BR  (light rain, mist)
KALB 231851Z 00000KT 2SM -RA BR SCT003 BKN033 OVC070 07/06 A2951 RMK AO2 SLP995 VIS 1 1/2V2 1/2 P0001 T00670056

Conditions at: KALB observed 23 January 2018  18:42 UTC
Temperature: 6.7°C (44°F)
Dewpoint: 5.6°C (42°F) [RH = 93%]
Pressure (altimeter): 29.52 inches Hg (999.7 mb)
Winds: from the ENE (70 degrees) at 5 MPH (4 knots; 2.1 m/s)
Visibility: 2.00 miles (3.22 km)
Ceiling: 7000 feet AGL
Clouds: scattered clouds at 300 feet AGL
overcast cloud deck at 7000 feet AGL
Present Weather: -RA BR  (light rain, mist)
KALB 231842Z 07004KT 2SM -RA BR SCT003 OVC070 07/06 A2952 RMK AO2 SFC VIS 3 P0001 T00670056

Conditions at: KALB observed 23 January 2018  17:51 UTC
Temperature: 7.8°C (46°F)
Dewpoint: 6.1°C (43°F) [RH = 89%]
Pressure (altimeter): 29.55 inches Hg (1000.8 mb)
[Sea-level pressure: 1000.7 mb]
Winds: from the ESE (110 degrees) at 5 MPH (4 knots; 2.1 m/s)
Visibility: 10 or more miles (16+ km)
Ceiling: 4500 feet AGL
Clouds: few clouds at 400 feet AGL
scattered clouds at 700 feet AGL
overcast cloud deck at 4500 feet AGL
Present Weather: BCFG -RA  (patches of fog, light rain)
KALB 231751Z 11004KT 10SM -RA BCFG FEW004 SCT007 OVC045 08/06 A2955 RMK AO2 PRESFR SLP007 BCFG N AND E AND SW-NW P0004 60063 T00780061 10078 20044 56044

Conditions at: KALB observed 23 January 2018  17:43 UTC
Temperature: 7.8°C (46°F)
Dewpoint: 6.7°C (44°F) [RH = 93%]
Pressure (altimeter): 29.56 inches Hg (1001.1 mb)
Winds: calm
Visibility: 7 miles (11 km)
Ceiling: 4500 feet AGL
Clouds: few clouds at 400 feet AGL
scattered clouds at 700 feet AGL
overcast cloud deck at 4500 feet AGL
Present Weather: BCFG -RA  (patches of fog, light rain)
KALB 231743Z COR 00000KT 7SM -RA BCFG FEW004 SCT007 OVC045 08/07 A2956 RMK AO2 BCFG N AND SW P0004 T00780067

Conditions at: KALB observed 23 January 2018  17:34 UTC
Temperature: 7.2°C (45°F)
Dewpoint: 6.1°C (43°F) [RH = 93%]
Pressure (altimeter): 29.57 inches Hg (1001.4 mb)
Winds: from the W (270 degrees) at 3 MPH (3 knots; 1.6 m/s)
Visibility: 3 miles (5 km)
Ceiling: 700 feet AGL
Clouds: scattered clouds at 300 feet AGL
broken clouds at 700 feet AGL
overcast cloud deck at 3000 feet AGL
Present Weather: -RA BR  (light rain, mist)
KALB 231734Z 27003KT 3SM -RA BR SCT003 BKN007 OVC030 07/06 A2957 RMK AO2 SCT V BKN P0004 T00720061

Conditions at: KALB observed 23 January 2018  16:51 UTC
Temperature: 6.7°C (44°F)
Dewpoint: 5.6°C (42°F) [RH = 93%]
Pressure (altimeter): 29.58 inches Hg (1001.8 mb)
[Sea-level pressure: 1001.9 mb]
Winds: calm
Visibility: 2.50 miles (4.02 km)
Ceiling: 300 feet AGL
Clouds: broken clouds at 300 feet AGL
overcast cloud deck at 4500 feet AGL
Present Weather: -RA BR  (light rain, mist)
KALB 231651Z 00000KT 2 1/2SM -RA BR BKN003 OVC045 07/06 A2958 RMK AO2 SLP019 VIS 2V3 P0010 T00670056

Conditions at: KALB observed 23 January 2018  16:23 UTC
Temperature: 6.1°C (43°F)
Dewpoint: 5.0°C (41°F) [RH = 93%]
Pressure (altimeter): 29.60 inches Hg (1002.5 mb)
Winds: from the SSW (200 degrees) at 6 MPH (5 knots; 2.6 m/s)
Visibility: 2.50 miles (4.02 km)
Ceiling: 400 feet AGL
Clouds: broken clouds at 400 feet AGL
broken clouds at 4500 feet AGL
overcast cloud deck at 7000 feet AGL
Present Weather: RA BR  (rain, mist)
KALB 231623Z 20005KT 2 1/2SM RA BR BKN004 BKN045 OVC070 06/05 A2960 RMK AO2 VIS 2V3 BKN004 V SCT P0006 T00610050

Conditions at: KALB observed 23 January 2018  15:51 UTC
Temperature: 6.1°C (43°F)
Dewpoint: 5.0°C (41°F) [RH = 93%]
Pressure (altimeter): 29.63 inches Hg (1003.5 mb)
[Sea-level pressure: 1003.4 mb]
Winds: from the S (170 degrees) at 8 MPH (7 knots; 3.6 m/s)
Visibility: 3 miles (5 km)
Ceiling: 400 feet AGL
Clouds: broken clouds at 400 feet AGL
broken clouds at 5500 feet AGL
overcast cloud deck at 7500 feet AGL
Present Weather: RA BR  (rain, mist)
KALB 231551Z 17007KT 3SM RA BR BKN004 BKN055 OVC075 06/05 A2963 RMK AO2 SFC VIS 4 PRESFR SLP034 BKN004 V SCT P0013 T00610050

Conditions at: KALB observed 23 January 2018  15:05 UTC
Temperature: 5.6°C (42°F)
Dewpoint: 3.9°C (39°F) [RH = 89%]
Pressure (altimeter): 29.67 inches Hg (1004.8 mb)
Winds: from the S (170 degrees) at 12 MPH (10 knots; 5.2 m/s)
Visibility: 5 miles (8 km)
Ceiling: 400 feet AGL
Clouds: broken clouds at 400 feet AGL
overcast cloud deck at 7000 feet AGL
Present Weather: -RA BR  (light rain, mist)
KALB 231505Z 17010KT 5SM -RA BR BKN004 OVC070 06/04 A2967 RMK AO2 BKN V SCT P0000 T00560039

Conditions at: KALB observed 23 January 2018  14:51 UTC
Temperature: 5.6°C (42°F)
Dewpoint: 3.9°C (39°F) [RH = 89%]
Pressure (altimeter): 29.68 inches Hg (1005.2 mb)
[Sea-level pressure: 1005.2 mb]
Winds: from the S (180 degrees) at 14 MPH (12 knots; 6.2 m/s)
Visibility: 5 miles (8 km)
Ceiling: 5000 feet AGL
Clouds: scattered clouds at 400 feet AGL
broken clouds at 5000 feet AGL
overcast cloud deck at 7000 feet AGL
Present Weather: -RA BR  (light rain, mist)
KALB 231451Z 18012KT 5SM -RA BR SCT004 BKN050 OVC070 06/04 A2968 RMK AO2 SLP052 VIS W 2 SCT V BKN P0009 60036 T00560039 56024

Conditions at: KALB observed 23 January 2018  14:46 UTC
Temperature: 6.0°C (43°F)
Dewpoint: 4.0°C (39°F) [RH = 87%]
Pressure (altimeter): 29.68 inches Hg (1005.2 mb)
Winds: from the S (170 degrees) at 12 MPH (10 knots; 5.2 m/s)
Visibility: 4 miles (6 km)
Ceiling: 5000 feet AGL
Clouds: scattered clouds at 400 feet AGL
broken clouds at 5000 feet AGL
overcast cloud deck at 7000 feet AGL
Present Weather: -RA BR  (light rain, mist)
KALB 231446Z 17010KT 4SM -RA BR SCT004 BKN050 OVC070 06/04 A2968 RMK AO2 VIS W 2 SCT V BKN P0009

Conditions at: KALB observed 23 January 2018  13:57 UTC
Temperature: 5.6°C (42°F)
Dewpoint: 3.9°C (39°F) [RH = 89%]
Pressure (altimeter): 29.70 inches Hg (1005.8 mb)
Winds: from the S (180 degrees) at 14 MPH (12 knots; 6.2 m/s)
Visibility: 3 miles (5 km)
Ceiling: 400 feet AGL
Clouds: broken clouds at 400 feet AGL
overcast cloud deck at 5000 feet AGL
Present Weather: -RA BR  (light rain, mist)
KALB 231357Z 18012KT 3SM -RA BR BKN004 OVC050 06/04 A2970 RMK AO2 VIS W 2 P0001 T00560039